Levittown, NY (11756)

7:30 AM EST on January 31, 2015 (GMT -0500)
Eastern Nassau County | Change Station
CLOSE
Current Station
Personal Weather Station
Location: Levittown, NY
Elevation: 108 ft
Nearby Weather Stations

Elev 108 ft 40.73 °N, 73.53 °W | Updated 24 seconds ago

Clear
Clear
13.2 °F
Feels Like 1 °F
N
9.0
Wind Variable Wind from NW
Gusts 23.0 mph

Today
High -- | Low -- °F
--% Chance of Precip.
Yesterday
High -- | Low -- °F
Precip. -- in
7:05 AM 5:10 PM
Waxing Gibbous, 89% visible
Pressure 30.04 in
Visibility 10.0 miles
Clouds Clear
Windchill 1 °F
Dew Point 1 °F
Humidity 58%
Rainfall 0.00 in
Snow Depth Not available.
UV 0 out of 12
Pollen .10 out of 12
Air Quality Not available.
Flu Activity Not available.
METAR KFRG 311153Z 32016G27KT 10SM CLR M11/M21 A3004 RMK AO2 PK WND 33032/1140 SLP172 T11061211 11067 21106 51009

More Conditions Fewer Conditions

Pressure 30.04 in
Visibility 10.0 miles
Clouds Clear
Windchill 1 °F
Dew Point 1 °F
Humidity 58%
Rainfall 0.00 in
Snow Depth Not available.
UV 0 out of 12
Pollen .10 out of 12
Air Quality Not available.
Flu Activity Not available.
METAR KFRG 311153Z 32016G27KT 10SM CLR M11/M21 A3004 RMK AO2 PK WND 33032/1140 SLP172 T11061211 11067 21106 51009

More Conditions Fewer Conditions

10-Day Weather Forecast

Almanac

Astronomy

Jan. 31, 2015 Rise Set
Actual Time
Civil Twilight
Nautical Twilight
Astronomical Twilight
Moon
Length of Visible Light
Length of Day
Tomorrow will be .
, % of the Moon is Illuminated

Today's Extremes

State Highs State Lows

Community

WunderPhotos

Upload Photos

1,792,039 photos uploaded!

WunderBlogs® & News

Nearby

Air Quality

  Air Quality AQ Index Pollutant
Not available.

Snow Depth

Station Depth Elevation

Earthquake Activity

City Distance Mag. Time & Date
Minimum magnitude displayed is 2.5.

Coastal Water Temperatures

Place Temperature

Nearby Weather Stations